Time;durP1;ratioP1;P1;durP2;ratioP2;P2;SDS_P1;SDS_P2;PMS_P1;PMS_P2;Temp;Humidity;BMP_temperature;BMP_pressure;BME280_temperature;BME280_humidity;BME280_pressure;Samples;Min_cycle;Max_cycle;Signal;HPM_P1;HPM_P2
2023/10/15 00:01:28;;;;;;;0.60;0.45;;;;;;;18.78;60.21;99196.78;5329476;26;20044;-95
2023/10/15 00:03:53;;;;;;;0.30;0.30;;;;;;;18.67;60.20;99198.41;5310937;26;20064;-95
2023/10/15 00:06:19;;;;;;;0.00;0.00;;;;;;;18.41;60.19;99194.19;5331356;26;20078;-95
2023/10/15 00:08:48;;;;;;;15.80;0.57;;;;;;;18.45;60.19;99197.41;5313635;26;20438;-96
2023/10/15 00:11:14;;;;;;;0.00;0.00;;;;;;;18.42;60.19;99209.03;5330849;26;20060;-94
2023/10/15 00:13:39;;;;;;;0.40;0.40;;;;;;;18.23;60.18;99213.97;5291903;26;20462;-94
2023/10/15 00:16:06;;;;;;;0.00;0.00;;;;;;;18.28;60.18;99223.22;5310665;26;20088;-94
2023/10/15 00:18:32;;;;;;;0.68;0.68;;;;;;;18.12;60.17;99248.13;5311148;26;20108;-93
2023/10/15 00:21:11;;;;;;;0.00;0.00;;;;;;;18.06;60.17;99255.53;5310453;26;20048;-94
2023/10/15 00:23:37;;;;;;;0.10;0.10;;;;;;;18.01;60.17;99251.53;5312268;26;20060;-93
2023/10/15 00:26:04;;;;;;;0.30;0.20;;;;;;;17.92;60.16;99258.25;5312771;26;20107;-95
2023/10/15 00:28:31;;;;;;;1.15;0.45;;;;;;;18.00;60.17;99274.41;5312233;26;20037;-96
2023/10/15 00:30:57;;;;;;;1.27;0.60;;;;;;;18.02;60.17;99285.66;5330384;26;20056;-94
2023/10/15 00:33:22;;;;;;;0.00;0.00;;;;;;;18.04;60.17;99286.38;5310623;26;20115;-96
2023/10/15 00:35:56;;;;;;;0.00;0.00;;;;;;;17.92;60.16;99275.84;5310429;26;20181;-96
2023/10/15 00:38:24;;;;;;;0.00;0.00;;;;;;;17.87;60.16;99259.53;5330635;26;20065;-95
2023/10/15 00:40:51;;;;;;;0.05;0.05;;;;;;;17.73;60.15;99249.97;5314027;26;20024;-94
2023/10/15 00:43:17;;;;;;;0.00;0.00;;;;;;;17.71;60.15;99259.75;5311288;26;20087;-94
2023/10/15 00:45:45;;;;;;;0.00;0.00;;;;;;;17.63;60.15;99262.06;5309986;26;20406;-95
2023/10/15 00:48:24;;;;;;;0.00;0.00;;;;;;;17.68;60.14;99270.50;5308602;26;20112;-96
2023/10/15 00:50:51;;;;;;;0.25;0.10;;;;;;;17.59;60.14;99276.37;5309093;26;20124;-95
2023/10/15 00:53:21;;;;;;;0.00;0.00;;;;;;;17.56;60.14;99268.69;5308293;26;20080;-94
2023/10/15 00:56:10;;;;;;;0.10;0.10;;;;;;;17.65;60.14;99270.69;5308826;26;20433;-96
2023/10/15 00:59:07;;;;;;;0.20;0.20;;;;;;;17.60;60.14;99278.06;5311460;26;20020;-96
2023/10/15 01:01:34;;;;;;;0.22;0.00;;;;;;;17.54;60.15;99287.22;5331893;26;20128;-95
2023/10/15 01:03:59;;;;;;;0.00;0.00;;;;;;;17.57;60.14;99280.91;5310048;26;20043;-95
2023/10/15 01:06:39;;;;;;;0.30;0.25;;;;;;;17.43;60.13;99297.59;5330014;26;20033;-96
2023/10/15 01:09:09;;;;;;;0.00;0.00;;;;;;;17.36;60.13;99299.81;5311838;26;20020;-94
2023/10/15 01:11:51;;;;;;;0.60;0.43;;;;;;;17.42;60.13;99295.94;5310211;26;20109;-96
2023/10/15 01:14:25;;;;;;;0.00;0.00;;;;;;;17.43;60.13;99287.94;5311039;26;20055;-96
2023/10/15 01:16:51;;;;;;;0.00;0.00;;;;;;;17.32;60.13;99294.88;5312681;26;20779;-96
2023/10/15 01:19:18;;;;;;;0.00;0.00;;;;;;;17.34;60.13;99296.44;5310634;26;20021;-95
2023/10/15 01:21:57;;;;;;;0.00;0.00;;;;;;;17.28;60.12;99290.75;5310798;26;20052;-96
2023/10/15 01:24:22;;;;;;;0.00;0.00;;;;;;;17.25;60.12;99286.53;5312292;26;20032;-96
2023/10/15 01:27:07;;;;;;;0.00;0.00;;;;;;;17.45;60.13;99290.44;5310368;26;20063;-95
2023/10/15 01:29:34;;;;;;;0.00;0.00;;;;;;;17.22;60.12;99294.63;5315718;26;20024;-95
2023/10/15 01:32:03;;;;;;;0.00;0.00;;;;;;;17.02;60.11;99289.84;5310001;26;20048;-94
2023/10/15 01:34:30;;;;;;;0.00;0.00;;;;;;;16.99;60.10;99298.75;5293286;26;20078;-96
2023/10/15 01:36:59;;;;;;;0.00;0.00;;;;;;;17.10;60.12;99306.81;5311931;26;20072;-95
2023/10/15 01:39:40;;;;;;;0.00;0.00;;;;;;;17.21;60.12;99303.47;5311909;26;20031;-93
2023/10/15 01:42:06;;;;;;;0.00;0.00;;;;;;;17.22;60.12;99307.78;5312629;26;20047;-91
2023/10/15 01:44:47;;;;;;;0.00;0.00;;;;;;;16.96;60.11;99303.38;5307350;26;20078;-93
2023/10/15 01:47:13;;;;;;;0.00;0.00;;;;;;;16.94;60.11;99310.53;5308368;26;20068;-93
2023/10/15 01:49:38;;;;;;;0.00;0.00;;;;;;;17.02;60.11;99306.44;5306875;26;20405;-93
2023/10/15 01:52:10;;;;;;;0.00;0.00;;;;;;;16.95;60.11;99320.94;5307065;26;20068;-93
2023/10/15 01:54:36;;;;;;;0.20;0.10;;;;;;;16.97;60.11;99318.22;5308407;26;20121;-94
2023/10/15 01:57:09;;;;;;;0.00;0.00;;;;;;;17.04;60.11;99328.25;5306956;26;20064;-94
2023/10/15 01:59:47;;;;;;;0.00;0.00;;;;;;;17.18;60.12;99317.66;5308648;26;20076;-94
2023/10/15 02:02:17;;;;;;;0.00;0.00;;;;;;;17.22;60.12;99318.28;5309430;26;20043;-94
2023/10/15 02:04:46;;;;;;;0.00;0.00;;;;;;;17.12;60.11;99314.59;5307669;26;20088;-94
2023/10/15 02:07:15;;;;;;;0.10;0.00;;;;;;;17.27;60.12;99318.84;5307320;26;20068;-95
2023/10/15 02:09:43;;;;;;;0.00;0.00;;;;;;;17.17;60.12;99315.13;5308030;26;20119;-95
2023/10/15 02:12:18;;;;;;;3.62;0.75;;;;;;;17.13;60.12;99319.75;5308563;26;20050;-95
2023/10/15 02:14:44;;;;;;;0.00;0.00;;;;;;;17.14;60.11;99320.59;5308222;26;20074;-95
2023/10/15 02:17:13;;;;;;;0.00;0.00;;;;;;;17.05;60.11;99314.16;5308031;26;20075;-94
2023/10/15 02:19:42;;;;;;;0.10;0.10;;;;;;;17.12;60.11;99299.66;5290665;26;20476;-95
2023/10/15 02:22:12;;;;;;;0.00;0.00;;;;;;;17.03;60.11;99305.50;5308134;26;20071;-94
2023/10/15 02:24:37;;;;;;;;;;;;;;;17.06;60.11;99305.34;5309172;26;20073;-96
2023/10/15 02:27:05;;;;;;;0.00;0.00;;;;;;;16.97;60.11;99302.44;5326289;26;19983;-95
2023/10/15 02:32:08;;;;;;;0.80;0.55;;;;;;;16.74;60.10;99317.91;5327046;26;20056;-95
2023/10/15 02:34:42;;;;;;;0.00;0.00;;;;;;;16.57;60.09;99315.50;5309572;26;20065;-96
2023/10/15 02:37:10;;;;;;;0.15;0.15;;;;;;;16.59;60.09;99311.00;5308734;26;20075;-96
2023/10/15 02:39:44;;;;;;;0.32;0.10;;;;;;;16.50;60.08;99325.53;5308269;26;20063;-96
2023/10/15 02:42:10;;;;;;;0.00;0.00;;;;;;;16.47;60.08;99325.75;5308822;26;20048;-96
2023/10/15 02:44:38;;;;;;;0.00;0.00;;;;;;;16.54;60.08;99327.03;5308886;26;20721;-96
2023/10/15 02:47:07;;;;;;;0.00;0.00;;;;;;;16.54;60.08;99334.91;5310222;26;20075;-96
2023/10/15 02:49:53;;;;;;;0.20;0.20;;;;;;;16.68;60.09;99331.44;5308579;26;20697;-96
2023/10/15 02:52:20;;;;;;;0.00;0.00;;;;;;;16.73;60.09;99332.00;5311176;26;20044;-95
2023/10/15 02:54:46;;;;;;;0.00;0.00;;;;;;;16.55;60.09;99330.50;5309391;26;20067;-95
2023/10/15 02:57:15;;;;;;;0.00;0.00;;;;;;;16.53;60.08;99346.37;5310312;26;20384;-94
2023/10/15 02:59:51;;;;;;;0.37;0.23;;;;;;;16.30;60.07;99348.72;5313353;26;20795;-95
2023/10/15 03:02:20;;;;;;;0.00;0.00;;;;;;;16.31;60.07;99353.03;5318047;26;20087;-96
2023/10/15 03:04:49;;;;;;;0.28;0.25;;;;;;;16.40;60.08;99353.34;5293802;26;20057;-96
2023/10/15 03:07:30;;;;;;;0.00;0.00;;;;;;;16.48;60.08;99366.00;5308123;26;20414;-96
2023/10/15 03:09:58;;;;;;;;;;;;;;;16.44;60.08;99367.13;5311362;26;20049;-95
2023/10/15 03:12:24;;;;;;;0.00;0.00;;;;;;;16.36;60.07;99353.63;5325660;26;19994;-96
2023/10/15 03:14:51;;;;;;;0.00;0.00;;;;;;;16.34;60.08;99348.47;5306281;26;20104;-94
2023/10/15 03:17:29;;;;;;;0.05;0.05;;;;;;;16.10;60.06;99328.97;5307119;26;20094;-96
2023/10/15 03:19:55;;;;;;;0.00;0.00;;;;;;;16.15;60.06;99325.13;5311698;26;20052;-96
2023/10/15 03:22:23;;;;;;;0.68;0.30;;;;;;;16.01;60.06;99327.72;5308554;26;20029;-95
2023/10/15 03:24:50;;;;;;;0.20;0.20;;;;;;;16.01;60.06;99330.34;5311442;26;20060;-94
2023/10/15 03:27:17;;;;;;;0.00;0.00;;;;;;;16.02;60.06;99332.06;5287787;26;20064;-94
2023/10/15 03:29:43;;;;;;;0.00;0.00;;;;;;;16.11;60.06;99333.28;5324551;26;20060;-94
2023/10/15 03:32:12;;;;;;;0.00;0.00;;;;;;;16.07;60.05;99332.59;5306079;26;20064;-95
2023/10/15 03:34:47;;;;;;;0.00;0.00;;;;;;;16.10;60.06;99337.69;5306344;26;20167;-94
2023/10/15 03:37:16;;;;;;;0.37;0.10;;;;;;;16.02;60.06;99344.34;5307537;26;20083;-94
2023/10/15 03:42:10;;;;;;;0.00;0.00;;;;;;;16.11;60.06;99349.03;5324762;26;20100;-95
2023/10/15 03:44:49;;;;;;;0.00;0.00;;;;;;;16.15;60.06;99333.00;5306580;26;20064;-96
2023/10/15 03:47:16;;;;;;;0.00;0.00;;;;;;;16.24;60.06;99344.72;5328347;26;20120;-96
2023/10/15 03:49:44;;;;;;;0.00;0.00;;;;;;;16.17;60.07;99353.91;5307829;26;20783;-96
2023/10/15 03:52:14;;;;;;;0.00;0.00;;;;;;;16.00;60.05;99343.59;5307234;26;20401;-95
2023/10/15 03:54:42;;;;;;;0.10;0.10;;;;;;;16.00;60.05;99333.09;5325624;26;20060;-95
2023/10/15 03:57:08;;;;;;;0.22;0.22;;;;;;;16.02;60.06;99347.81;5306338;26;20108;-96
2023/10/15 03:59:43;;;;;;;0.37;0.20;;;;;;;15.95;60.06;99342.09;5306412;26;20056;-95
2023/10/15 04:02:14;;;;;;;0.50;0.50;;;;;;;15.96;60.05;99328.03;5307234;26;20131;-96
2023/10/15 04:04:40;;;;;;;0.00;0.00;;;;;;;16.04;60.05;99330.16;5308225;26;20072;-95
2023/10/15 04:07:19;;;;;;;0.15;0.10;;;;;;;15.95;60.06;99320.25;5306164;26;20158;-96
2023/10/15 04:09:45;;;;;;;0.00;0.00;;;;;;;15.96;60.05;99322.78;5308203;26;20127;-95
2023/10/15 04:12:10;;;;;;;0.00;0.00;;;;;;;15.65;60.04;99329.03;5307763;26;20064;-95
2023/10/15 04:14:35;;;;;;;0.00;0.00;;;;;;;15.69;60.04;99313.09;5307908;26;20067;-94
2023/10/15 04:17:01;;;;;;;0.00;0.00;;;;;;;15.76;60.04;99319.66;5306570;26;20093;-93
2023/10/15 04:19:27;;;;;;;0.00;0.00;;;;;;;15.40;60.02;99323.50;5325122;26;20439;-93
2023/10/15 04:21:53;;;;;;;0.00;0.00;;;;;;;15.39;60.02;99329.69;5307349;26;20053;-94
2023/10/15 04:24:27;;;;;;;1.05;0.22;;;;;;;15.42;60.02;99342.62;5307900;26;20087;-95
2023/10/15 04:26:54;;;;;;;0.00;0.00;;;;;;;15.33;60.02;99353.63;5310264;26;20036;-95
2023/10/15 04:29:21;;;;;;;0.00;0.00;;;;;;;15.26;60.02;99361.00;5307241;26;20136;-93
2023/10/15 04:32:09;;;;;;;0.00;0.00;;;;;;;15.09;60.00;99360.28;5325784;26;20060;-94
2023/10/15 04:34:37;;;;;;;0.20;0.20;;;;;;;14.88;59.99;99378.03;5326428;26;20084;-94
2023/10/15 04:37:10;;;;;;;0.00;0.00;;;;;;;14.80;59.99;99370.63;5308539;26;20067;-95
2023/10/15 04:39:45;;;;;;;0.00;0.00;;;;;;;14.78;59.98;99363.78;5309630;26;20071;-96
2023/10/15 04:42:20;;;;;;;0.00;0.00;;;;;;;14.81;59.99;99358.34;5292964;26;20075;-94
2023/10/15 04:44:46;;;;;;;0.00;0.00;;;;;;;14.49;59.97;99350.50;5309751;26;20063;-95
2023/10/15 04:47:12;;;;;;;0.00;0.00;;;;;;;14.67;59.98;99346.03;5307996;26;20060;-93
2023/10/15 04:49:37;;;;;;;0.37;0.20;;;;;;;14.67;59.98;99353.91;5308161;26;20060;-94
2023/10/15 04:52:13;;;;;;;0.68;0.30;;;;;;;14.64;59.98;99354.03;5311877;26;20099;-95
2023/10/15 04:54:39;;;;;;;1.10;0.60;;;;;;;14.63;59.97;99373.31;5310093;26;20092;-93
2023/10/15 04:57:05;;;;;;;0.00;0.00;;;;;;;14.63;59.97;99391.63;5308733;26;20064;-94
2023/10/15 04:59:30;;;;;;;0.00;0.00;;;;;;;14.64;59.98;99385.47;5308207;26;20055;-94
2023/10/15 05:01:56;;;;;;;0.00;0.00;;;;;;;14.62;59.98;99389.94;5308200;26;20388;-94
2023/10/15 05:04:22;;;;;;;0.00;0.00;;;;;;;14.70;59.98;99412.22;5307842;26;20111;-92
2023/10/15 05:06:48;;;;;;;0.05;0.05;;;;;;;14.58;59.98;99431.19;5307742;26;20165;-95
2023/10/15 05:09:23;;;;;;;0.47;0.47;;;;;;;14.48;59.98;99430.00;5308215;26;20128;-93
2023/10/15 05:11:50;;;;;;;0.22;0.22;;;;;;;14.42;59.97;99428.50;5308968;26;20094;-94
2023/10/15 05:14:17;;;;;;;0.73;0.47;;;;;;;14.45;59.97;99427.53;5307753;26;20078;-94
2023/10/15 05:16:46;;;;;;;0.00;0.00;;;;;;;14.32;59.96;99414.22;5308838;26;20086;-93
2023/10/15 05:19:17;;;;;;;0.00;0.00;;;;;;;14.47;59.97;99423.06;5307796;26;20056;-94
2023/10/15 05:21:44;;;;;;;0.10;0.10;;;;;;;14.45;59.97;99408.38;5308072;26;20028;-95
2023/10/15 05:24:18;;;;;;;0.10;0.00;;;;;;;14.39;59.96;99402.47;5309409;26;20067;-94
2023/10/15 05:26:53;;;;;;;0.03;0.00;;;;;;;14.38;59.96;99411.25;5329467;26;20188;-96
2023/10/15 05:29:19;;;;;;;0.00;0.00;;;;;;;14.18;59.96;99416.69;5315083;26;20035;-95
2023/10/15 05:31:45;;;;;;;0.00;0.00;;;;;;;14.35;59.97;99421.06;5313820;26;20179;-96
2023/10/15 05:34:11;;;;;;;0.00;0.00;;;;;;;14.28;59.97;99438.00;5320745;26;20033;-95
2023/10/15 05:36:37;;;;;;;1.17;1.08;;;;;;;14.14;59.96;99442.19;5314918;26;20149;-95
2023/10/15 05:39:08;;;;;;;0.00;0.00;;;;;;;13.96;59.95;99434.41;5307774;26;20462;-94
2023/10/15 05:41:34;;;;;;;0.00;0.00;;;;;;;13.94;59.94;99446.72;5317040;26;20025;-95
2023/10/15 05:44:07;;;;;;;0.43;0.20;;;;;;;14.07;59.95;99447.81;5322507;26;20025;-96
2023/10/15 05:46:56;;;;;;;0.05;0.05;;;;;;;14.10;59.96;99447.66;5349781;26;20088;-96
2023/10/15 05:50:22;;;;;;;0.00;0.00;;;;;;;14.14;59.95;99450.03;5340392;26;20020;-96
2023/10/15 05:56:26;;;;;;;0.00;0.00;;;;;;;14.15;59.95;99461.34;5338142;26;20075;-95
2023/10/15 05:58:51;;;;;;;0.00;0.00;;;;;;;14.03;59.96;99488.16;5332294;26;20111;-95
2023/10/15 06:01:16;;;;;;;0.00;0.00;;;;;;;14.09;59.95;99503.53;5308213;26;20066;-96
2023/10/15 06:03:42;;;;;;;0.00;0.00;;;;;;;14.07;59.95;99500.16;5308974;26;20083;-96
2023/10/15 06:06:08;;;;;;;0.00;0.00;;;;;;;13.90;59.95;99505.37;5290397;26;20107;-95
2023/10/15 06:08:33;;;;;;;0.08;0.05;;;;;;;13.87;59.94;99506.37;5291990;26;20108;-96
2023/10/15 06:10:59;;;;;;;0.00;0.00;;;;;;;14.09;59.96;99514.88;5312817;26;20057;-95
2023/10/15 06:13:24;;;;;;;0.08;0.08;;;;;;;14.11;59.95;99510.41;5310800;26;20070;-96
2023/10/15 06:15:50;;;;;;;0.22;0.22;;;;;;;14.05;59.95;99509.88;5310790;26;20064;-95
2023/10/15 06:18:16;;;;;;;0.00;0.00;;;;;;;14.08;59.95;99502.69;5291574;26;20120;-96
2023/10/15 06:20:41;;;;;;;0.20;0.20;;;;;;;13.96;59.95;99505.94;5292052;26;20106;-95
2023/10/15 06:23:08;;;;;;;0.00;0.00;;;;;;;14.05;59.95;99500.25;5328529;26;20088;-95
2023/10/15 06:25:38;;;;;;;0.60;0.35;;;;;;;13.95;59.94;99496.38;5309721;26;20130;-95
2023/10/15 06:28:06;;;;;;;1.25;0.85;;;;;;;14.04;59.95;99500.31;5309607;26;20113;-96
2023/10/15 06:30:32;;;;;;;0.13;0.05;;;;;;;14.04;59.95;99495.94;5309366;26;20034;-95
2023/10/15 06:32:58;;;;;;;0.00;0.00;;;;;;;13.96;59.95;99482.41;5308124;26;20114;-95
2023/10/15 06:35:26;;;;;;;0.00;0.00;;;;;;;13.90;59.94;99487.91;5309245;26;20064;-96
2023/10/15 06:37:56;;;;;;;0.00;0.00;;;;;;;13.71;59.93;99492.34;5290882;26;20076;-96
2023/10/15 06:40:22;;;;;;;0.17;0.17;;;;;;;13.81;59.94;99488.38;5313508;26;20879;-96
2023/10/15 06:42:47;;;;;;;0.00;0.00;;;;;;;13.76;59.94;99491.22;5311189;26;20048;-96
2023/10/15 06:45:19;;;;;;;0.00;0.00;;;;;;;13.52;59.92;99489.81;5313607;26;20072;-96
2023/10/15 06:47:55;;;;;;;0.00;0.00;;;;;;;13.52;59.92;99498.50;5319088;26;20084;-96
2023/10/15 06:50:29;;;;;;;0.00;0.00;;;;;;;13.42;59.92;99499.00;5337900;26;20127;-96
2023/10/15 06:52:57;;;;;;;0.00;0.00;;;;;;;13.26;59.90;99483.19;5316414;26;20307;-96
2023/10/15 06:55:31;;;;;;;0.20;0.20;;;;;;;13.37;59.91;99474.84;5335839;26;20116;-96
2023/10/15 06:57:56;;;;;;;0.00;0.00;;;;;;;13.21;59.90;99483.41;5303673;26;20038;-94
2023/10/15 07:00:46;;;;;;;0.10;0.10;;;;;;;13.33;59.91;99486.38;5320449;26;20056;-95
2023/10/15 07:03:31;;;;;;;0.22;0.22;;;;;;;13.20;59.91;99468.63;5356453;26;20027;-96
2023/10/15 07:06:00;;;;;;;0.13;0.13;;;;;;;13.34;59.90;99461.91;5336247;26;20025;-96
2023/10/15 07:08:38;;;;;;;0.73;0.73;;;;;;;13.36;59.91;99463.53;5337537;26;20024;-96
2023/10/15 07:11:06;;;;;;;0.10;0.10;;;;;;;13.49;59.93;99451.56;5338372;26;20113;-96
2023/10/15 07:17:38;;;;;;;0.00;0.00;;;;;;;13.60;59.93;99479.81;5294829;27;20113;-96
2023/10/15 07:20:43;;;;;;;0.00;0.00;;;;;;;13.57;59.92;99513.97;5188136;27;20115;-96
2023/10/15 07:23:13;;;;;;;0.10;0.10;;;;;;;13.48;59.91;99536.13;5186365;27;20038;-95
2023/10/15 07:25:57;;;;;;;0.00;0.00;;;;;;;13.59;59.93;99537.41;5283728;27;20029;-96
2023/10/15 07:29:06;;;;;;;0.15;0.13;;;;;;;13.60;59.93;99555.66;5293675;27;20072;-96
2023/10/15 07:31:56;;;;;;;0.00;0.00;;;;;;;13.60;59.92;99557.41;5293300;27;20072;-95
2023/10/15 07:34:27;;;;;;;0.00;0.00;;;;;;;13.65;59.92;99544.97;5275105;27;20063;-96
2023/10/15 07:40:33;;;;;;;4.75;0.68;;;;;;;13.50;59.92;99572.72;5281992;26;20138;-96
2023/10/15 07:43:00;;;;;;;0.00;0.00;;;;;;;13.62;59.93;99566.87;5282777;27;20061;-96
2023/10/15 07:45:33;;;;;;;0.88;0.75;;;;;;;13.66;59.93;99557.13;5250481;27;20041;-96
2023/10/15 07:48:14;;;;;;;0.13;0.13;;;;;;;13.77;59.93;99553.09;5273243;27;20118;-96
2023/10/15 07:50:45;;;;;;;0.45;0.43;;;;;;;13.78;59.94;99546.09;5253383;27;20045;-96
2023/10/15 07:53:14;;;;;;;0.00;0.00;;;;;;;13.82;59.94;99553.72;5266163;27;20030;-96
2023/10/15 07:55:50;;;;;;;0.00;0.00;;;;;;;13.82;59.94;99543.25;5267109;27;20061;-96
2023/10/15 07:58:42;;;;;;;0.10;0.08;;;;;;;14.07;59.95;99547.28;5250664;27;20099;-96
2023/10/15 08:01:16;;;;;;;0.00;0.00;;;;;;;14.08;59.95;99541.09;5270643;27;20033;-96
2023/10/15 08:03:42;;;;;;;0.10;0.10;;;;;;;14.21;59.96;99539.59;5255712;27;20134;-96
2023/10/15 08:06:29;;;;;;;0.40;0.37;;;;;;;14.38;59.97;99536.09;5279411;26;20084;-96
2023/10/15 08:08:55;;;;;;;0.00;0.00;;;;;;;14.29;59.97;99520.87;5338489;26;20040;-96
2023/10/15 08:11:21;;;;;;;0.00;0.00;;;;;;;14.53;59.98;99531.88;5339025;26;20045;-96
2023/10/15 08:13:47;;;;;;;0.00;0.00;;;;;;;14.48;59.98;99532.12;5324853;26;20029;-95
2023/10/15 08:24:08;;;;;;;0.05;0.05;;;;;;;14.72;59.99;99537.88;5361485;26;20214;-96
2023/10/15 08:42:34;;;;;;;;;;;;;;;;;;;;;
2023/10/15 09:34:59;;;;;;;0.00;0.00;;;;;;;15.20;60.01;99547.53;5360234;26;20047;-95
2023/10/15 09:48:33;;;;;;;0.05;0.05;;;;;;;15.18;60.02;99543.28;5339706;26;20047;-96
2023/10/15 09:51:12;;;;;;;0.00;0.00;;;;;;;14.95;60.01;99545.38;5346117;26;20036;-96
2023/10/15 10:22:59;;;;;;;0.00;0.00;;;;;;;15.13;60.01;99569.72;5324958;26;20202;-95
2023/10/15 10:34:05;;;;;;;0.30;0.30;;;;;;;15.30;60.02;99563.59;5310673;26;20095;-96
2023/10/15 10:41:59;;;;;;;0.00;0.00;;;;;;;15.48;60.03;99569.63;5319034;26;20205;-96
2023/10/15 10:44:33;;;;;;;0.47;0.45;;;;;;;15.40;60.03;99575.28;5290929;27;20061;-96
2023/10/15 11:03:42;;;;;;;0.22;0.22;;;;;;;15.01;60.00;99573.03;5374548;26;20040;-96
2023/10/15 11:12:37;;;;;;;0.35;0.35;;;;;;;15.22;60.01;99592.00;5327580;26;20044;-96
2023/10/15 11:21:13;;;;;;;0.75;0.75;;;;;;;15.19;60.02;99565.97;5290665;26;20096;-96
2023/10/15 11:23:53;;;;;;;0.10;0.10;;;;;;;15.50;60.03;99565.97;5259449;26;20141;-96
2023/10/15 11:26:49;;;;;;;0.00;0.00;;;;;;;15.48;60.04;99559.97;5276629;27;20037;-95
2023/10/15 11:53:03;;;;;;;0.00;0.00;;;;;;;15.96;60.05;99572.16;5348701;26;20043;-96
2023/10/15 11:55:41;;;;;;;0.00;0.00;;;;;;;16.16;60.07;99563.16;5395507;26;21040;31
2023/10/15 13:15:20;;;;;;;;;;;;;;;;;;;;;
2023/10/15 13:17:55;;;;;;;0.00;0.00;;;;;;;15.56;60.04;99604.13;5257636;27;20148;-96
2023/10/15 13:21:06;;;;;;;0.00;0.00;;;;;;;15.51;60.03;99596.53;5262369;27;20036;-95
2023/10/15 13:24:06;;;;;;;0.15;0.15;;;;;;;15.40;60.03;99574.44;5336544;26;20064;-95
2023/10/15 13:27:07;;;;;;;0.00;0.00;;;;;;;15.38;60.03;99571.91;5295166;26;20061;-96
2023/10/15 13:29:59;;;;;;;0.00;0.00;;;;;;;15.68;60.04;99576.44;5289642;26;20065;-96
2023/10/15 13:35:54;;;;;;;0.00;0.00;;;;;;;15.54;60.03;99577.16;5315127;26;21009;-94
2023/10/15 13:38:59;;;;;;;0.00;0.00;;;;;;;15.36;60.03;99579.00;5341364;26;20099;-95
2023/10/15 13:44:32;;;;;;;0.10;0.10;;;;;;;15.18;60.02;99600.97;5358679;26;20070;-96
2023/10/15 13:47:00;;;;;;;0.22;0.22;;;;;;;15.13;60.02;99597.72;5352118;26;20084;-96
2023/10/15 13:52:31;;;;;;;0.00;0.00;;;;;;;15.24;60.02;99605.88;5380358;26;20064;-96
2023/10/15 13:55:23;;;;;;;0.52;0.52;;;;;;;15.28;60.03;99602.16;5356822;26;20162;-96
2023/10/15 13:58:21;;;;;;;0.00;0.00;;;;;;;15.22;60.02;99595.47;5376259;26;20052;-96
2023/10/15 14:01:39;;;;;;;0.00;0.00;;;;;;;15.23;60.02;99596.31;5321850;26;20812;-96
2023/10/15 14:22:10;;;;;;;0.00;0.00;;;;;;;14.85;60.00;99617.53;5274880;27;20076;-96
2023/10/15 14:24:59;;;;;;;0.77;0.62;;;;;;;14.71;60.00;99609.53;5286581;27;20025;-96
2023/10/15 14:27:41;;;;;;;0.00;0.00;;;;;;;14.78;60.01;99595.19;5261611;26;20093;-96
2023/10/15 14:30:19;;;;;;;0.00;0.00;;;;;;;14.84;60.00;99579.16;5269020;27;20040;-95
2023/10/15 14:33:17;;;;;;;0.00;0.00;;;;;;;14.82;60.00;99588.84;5276646;27;20112;-96
2023/10/15 14:36:25;;;;;;;0.00;0.00;;;;;;;14.81;60.00;99584.53;5285511;27;20084;-96
2023/10/15 14:42:07;;;;;;;0.00;0.00;;;;;;;14.85;60.00;99580.84;5338807;26;20066;-95
2023/10/15 14:44:42;;;;;;;0.00;0.00;;;;;;;14.85;60.00;99580.00;5338042;26;20028;-96
2023/10/15 14:50:23;;;;;;;0.00;0.00;;;;;;;14.85;60.00;99574.75;5372906;26;20036;31
2023/10/15 15:03:47;;;;;;;0.00;0.00;;;;;;;14.88;60.00;99582.44;5374789;26;20470;-96
2023/10/15 15:06:52;;;;;;;0.45;0.25;;;;;;;14.75;60.00;99571.78;5341176;26;20032;-95
2023/10/15 15:14:38;;;;;;;0.08;0.08;;;;;;;14.80;60.00;99563.66;5355083;26;20064;-96
2023/10/15 15:20:16;;;;;;;0.17;0.17;;;;;;;14.76;59.99;99544.66;5291210;26;20119;-95
2023/10/15 15:23:07;;;;;;;2.92;1.17;;;;;;;14.62;59.99;99568.94;5327790;26;20867;-96
2023/10/15 15:34:21;;;;;;;0.03;0.03;;;;;;;14.56;59.99;99584.13;5312794;27;20075;-95
2023/10/15 16:57:20;;;;;;;0.00;0.00;;;;;;;13.34;59.92;99699.81;5361043;26;20024;-95
2023/10/15 17:00:30;;;;;;;0.00;0.00;;;;;;;13.27;59.92;99701.00;5309357;26;20063;-93
2023/10/15 17:12:44;;;;;;;0.13;0.13;;;;;;;13.11;59.90;99716.47;5338055;26;20131;-96
2023/10/15 17:18:09;;;;;;;6.65;0.90;;;;;;;12.91;59.90;99720.75;5294159;27;20055;-96
2023/10/15 17:26:04;;;;;;;0.75;0.75;;;;;;;12.76;59.89;99721.38;5333777;26;20112;-95
2023/10/15 17:31:31;;;;;;;0.52;0.52;;;;;;;12.66;59.89;99727.06;5333942;26;20033;-95
2023/10/15 17:37:21;;;;;;;0.13;0.13;;;;;;;12.65;59.88;99712.31;5315025;26;20051;-94
2023/10/15 17:55:41;;;;;;;0.00;0.00;;;;;;;12.16;59.85;99751.66;5379659;26;20072;-96
2023/10/15 17:58:12;;;;;;;0.08;0.08;;;;;;;12.21;59.86;99754.94;5343325;26;20050;-94
2023/10/15 19:45:48;;;;;;;3.17;0.25;;;;;;;10.39;59.76;99872.28;5317654;27;20076;-96
2023/10/15 19:54:31;;;;;;;0.00;0.00;;;;;;;10.55;59.77;99893.50;5194981;27;20653;-95
2023/10/15 19:57:13;;;;;;;1.20;1.10;;;;;;;10.16;59.74;99890.25;5155525;27;20044;31
2023/10/15 20:02:38;;;;;;;0.00;0.00;;;;;;;10.19;59.75;99915.34;5201138;27;20288;-96
2023/10/15 20:05:05;;;;;;;0.00;0.00;;;;;;;10.24;59.75;99908.31;5303145;27;20029;-95
2023/10/15 20:08:10;;;;;;;3.55;0.17;;;;;;;10.26;59.75;99911.72;5322827;26;20076;-93
2023/10/15 20:17:57;;;;;;;0.55;0.55;;;;;;;10.13;59.75;99926.75;5340808;26;20049;-96
2023/10/15 20:38:34;;;;;;;;;;;;;;;;;;;;;
2023/10/15 20:41:48;;;;;;;0.00;0.00;;;;;;;9.99;59.74;99934.94;5229517;27;20030;-96
2023/10/15 21:02:57;;;;;;;0.00;0.00;;;;;;;9.95;59.73;99964.53;5082700;27;20029;-95
2023/10/15 21:05:23;;;;;;;0.00;0.00;;;;;;;9.97;59.73;99957.53;5150556;27;20042;-96
2023/10/15 21:07:51;;;;;;;0.00;0.00;;;;;;;9.98;59.73;99964.44;5186156;27;20081;-96
2023/10/15 21:23:28;;;;;;;0.00;0.00;;;;;;;9.92;59.73;99977.59;5279284;26;20035;-95
2023/10/15 21:25:54;;;;;;;0.00;0.00;;;;;;;9.91;59.73;99981.06;5320603;27;20053;-95
2023/10/15 21:28:41;;;;;;;0.00;0.00;;;;;;;9.91;59.73;99970.69;5286192;26;20052;-93
2023/10/15 21:31:08;;;;;;;0.00;0.00;;;;;;;10.02;59.73;99983.41;5326048;26;20056;-92
2023/10/15 21:33:33;;;;;;;0.30;0.30;;;;;;;10.08;59.74;99994.50;5322938;26;20082;-93
2023/10/15 21:36:00;;;;;;;0.05;0.05;;;;;;;10.18;59.75;99986.47;5304297;26;20081;-93
2023/10/15 21:38:26;;;;;;;0.10;0.10;;;;;;;10.23;59.74;99984.63;5322863;26;20032;-92
2023/10/15 21:40:52;;;;;;;0.05;0.05;;;;;;;10.04;59.74;99981.62;5330800;26;20094;-92
2023/10/15 22:15:32;;;;;;;0.20;0.20;;;;;;;9.63;59.71;100022.50;5355397;26;20112;-96
2023/10/15 22:18:50;;;;;;;;;;;;;;;9.70;59.71;100015.41;5342043;26;20047;-93
2023/10/15 23:15:38;;;;;;;0.00;0.00;;;;;;;9.08;59.68;100047.13;5353093;26;20049;-94
2023/10/15 23:18:06;;;;;;;0.00;0.00;;;;;;;9.05;59.68;100047.19;5328782;26;20033;-96
2023/10/15 23:20:42;;;;;;;0.10;0.10;;;;;;;9.16;59.69;100049.56;5345455;26;20028;-95
2023/10/15 23:23:21;;;;;;;0.05;0.05;;;;;;;9.16;59.69;100046.97;5328526;26;20034;-96
2023/10/15 23:25:53;;;;;;;0.00;0.00;;;;;;;9.13;59.69;100054.81;5362367;26;20056;-95
2023/10/15 23:32:49;;;;;;;0.00;0.00;;;;;;;9.08;59.68;100056.66;5340626;26;20167;-95
2023/10/15 23:39:26;;;;;;;0.00;0.00;;;;;;;8.93;59.67;100053.50;5334603;26;20075;-95
